sensor_id;sensor_type;location;lat;lon;timestamp;P1;durP1;ratioP1;P2;durP2;ratioP2
19747;SDS011;10032;51.386;12.516;2023-09-30T00:00:05;0.50;;;0.50;;
19747;SDS011;10032;51.386;12.516;2023-09-30T00:02:33;0.95;;;0.73;;
19747;SDS011;10032;51.386;12.516;2023-09-30T00:04:58;0.75;;;0.60;;
19747;SDS011;10032;51.386;12.516;2023-09-30T00:07:24;0.82;;;0.60;;
19747;SDS011;10032;51.386;12.516;2023-09-30T00:09:49;0.55;;;0.52;;
19747;SDS011;10032;51.386;12.516;2023-09-30T00:12:16;0.80;;;0.70;;
19747;SDS011;10032;51.386;12.516;2023-09-30T00:14:42;0.63;;;0.63;;
19747;SDS011;10032;51.386;12.516;2023-09-30T00:17:07;1.02;;;0.65;;
19747;SDS011;10032;51.386;12.516;2023-09-30T00:19:33;2.25;;;1.00;;
19747;SDS011;10032;51.386;12.516;2023-09-30T00:21:58;3.70;;;1.42;;
19747;SDS011;10032;51.386;12.516;2023-09-30T00:24:25;0.95;;;0.80;;
19747;SDS011;10032;51.386;12.516;2023-09-30T00:26:51;1.42;;;0.70;;
19747;SDS011;10032;51.386;12.516;2023-09-30T00:29:16;1.45;;;1.02;;
19747;SDS011;10032;51.386;12.516;2023-09-30T00:31:43;2.17;;;0.60;;
19747;SDS011;10032;51.386;12.516;2023-09-30T00:34:09;1.00;;;0.80;;
19747;SDS011;10032;51.386;12.516;2023-09-30T00:36:34;1.15;;;0.80;;
19747;SDS011;10032;51.386;12.516;2023-09-30T00:39:00;1.80;;;0.90;;
19747;SDS011;10032;51.386;12.516;2023-09-30T00:41:26;2.53;;;0.93;;
19747;SDS011;10032;51.386;12.516;2023-09-30T00:43:51;0.80;;;0.50;;
19747;SDS011;10032;51.386;12.516;2023-09-30T00:48:54;0.73;;;0.73;;
19747;SDS011;10032;51.386;12.516;2023-09-30T00:51:22;0.88;;;0.80;;
19747;SDS011;10032;51.386;12.516;2023-09-30T00:53:49;1.05;;;0.82;;
19747;SDS011;10032;51.386;12.516;2023-09-30T00:56:17;1.13;;;1.00;;
19747;SDS011;10032;51.386;12.516;2023-09-30T00:58:43;1.17;;;0.82;;
19747;SDS011;10032;51.386;12.516;2023-09-30T01:01:12;1.00;;;0.70;;
19747;SDS011;10032;51.386;12.516;2023-09-30T01:03:38;1.60;;;0.90;;
19747;SDS011;10032;51.386;12.516;2023-09-30T01:06:04;0.88;;;0.88;;
19747;SDS011;10032;51.386;12.516;2023-09-30T01:08:29;1.42;;;0.85;;
19747;SDS011;10032;51.386;12.516;2023-09-30T01:10:57;0.98;;;0.85;;
19747;SDS011;10032;51.386;12.516;2023-09-30T01:13:23;2.92;;;0.98;;
19747;SDS011;10032;51.386;12.516;2023-09-30T01:15:48;1.30;;;1.00;;
19747;SDS011;10032;51.386;12.516;2023-09-30T01:18:14;1.83;;;1.23;;
19747;SDS011;10032;51.386;12.516;2023-09-30T01:20:40;1.55;;;0.90;;
19747;SDS011;10032;51.386;12.516;2023-09-30T01:23:06;0.73;;;0.73;;
19747;SDS011;10032;51.386;12.516;2023-09-30T01:25:31;1.17;;;1.08;;
19747;SDS011;10032;51.386;12.516;2023-09-30T01:27:58;0.95;;;0.70;;
19747;SDS011;10032;51.386;12.516;2023-09-30T01:30:25;2.03;;;1.15;;
19747;SDS011;10032;51.386;12.516;2023-09-30T01:32:50;4.32;;;0.98;;
19747;SDS011;10032;51.386;12.516;2023-09-30T01:35:16;2.95;;;1.27;;
19747;SDS011;10032;51.386;12.516;2023-09-30T01:37:41;1.83;;;1.17;;
19747;SDS011;10032;51.386;12.516;2023-09-30T01:40:07;2.72;;;1.00;;
19747;SDS011;10032;51.386;12.516;2023-09-30T01:42:35;1.15;;;0.77;;
19747;SDS011;10032;51.386;12.516;2023-09-30T01:45:01;1.13;;;0.60;;
19747;SDS011;10032;51.386;12.516;2023-09-30T01:47:27;0.95;;;0.95;;
19747;SDS011;10032;51.386;12.516;2023-09-30T01:49:52;1.80;;;1.05;;
19747;SDS011;10032;51.386;12.516;2023-09-30T01:52:18;1.48;;;1.25;;
19747;SDS011;10032;51.386;12.516;2023-09-30T01:54:43;0.85;;;0.85;;
19747;SDS011;10032;51.386;12.516;2023-09-30T01:57:09;1.75;;;0.85;;
19747;SDS011;10032;51.386;12.516;2023-09-30T01:59:34;1.35;;;0.82;;
19747;SDS011;10032;51.386;12.516;2023-09-30T02:02:00;1.83;;;0.80;;
19747;SDS011;10032;51.386;12.516;2023-09-30T02:04:26;2.15;;;1.25;;
19747;SDS011;10032;51.386;12.516;2023-09-30T02:06:52;2.17;;;1.08;;
19747;SDS011;10032;51.386;12.516;2023-09-30T02:09:17;1.10;;;1.10;;
19747;SDS011;10032;51.386;12.516;2023-09-30T02:11:42;1.33;;;1.23;;
19747;SDS011;10032;51.386;12.516;2023-09-30T02:14:09;2.25;;;1.25;;
19747;SDS011;10032;51.386;12.516;2023-09-30T02:16:37;1.65;;;1.27;;
19747;SDS011;10032;51.386;12.516;2023-09-30T02:19:03;1.25;;;0.90;;
19747;SDS011;10032;51.386;12.516;2023-09-30T02:21:28;1.38;;;1.27;;
19747;SDS011;10032;51.386;12.516;2023-09-30T02:23:54;1.95;;;1.30;;
19747;SDS011;10032;51.386;12.516;2023-09-30T02:26:20;3.17;;;1.33;;
19747;SDS011;10032;51.386;12.516;2023-09-30T02:28:46;2.22;;;1.23;;
19747;SDS011;10032;51.386;12.516;2023-09-30T02:31:12;3.38;;;1.75;;
19747;SDS011;10032;51.386;12.516;2023-09-30T02:33:37;3.92;;;1.25;;
19747;SDS011;10032;51.386;12.516;2023-09-30T02:36:06;3.70;;;1.35;;
19747;SDS011;10032;51.386;12.516;2023-09-30T02:38:32;2.03;;;1.17;;
19747;SDS011;10032;51.386;12.516;2023-09-30T02:40:58;1.80;;;1.13;;
19747;SDS011;10032;51.386;12.516;2023-09-30T02:43:23;1.50;;;1.20;;
19747;SDS011;10032;51.386;12.516;2023-09-30T02:45:48;2.03;;;1.15;;
19747;SDS011;10032;51.386;12.516;2023-09-30T02:48:15;1.10;;;1.00;;
19747;SDS011;10032;51.386;12.516;2023-09-30T02:50:43;2.47;;;1.20;;
19747;SDS011;10032;51.386;12.516;2023-09-30T02:53:11;1.52;;;1.30;;
19747;SDS011;10032;51.386;12.516;2023-09-30T02:55:38;3.65;;;1.88;;
19747;SDS011;10032;51.386;12.516;2023-09-30T02:58:04;2.70;;;1.63;;
19747;SDS011;10032;51.386;12.516;2023-09-30T03:00:30;1.92;;;1.52;;
19747;SDS011;10032;51.386;12.516;2023-09-30T03:02:58;2.35;;;1.27;;
19747;SDS011;10032;51.386;12.516;2023-09-30T03:05:27;1.38;;;1.10;;
19747;SDS011;10032;51.386;12.516;2023-09-30T03:07:55;1.85;;;1.75;;
19747;SDS011;10032;51.386;12.516;2023-09-30T03:10:21;1.75;;;1.40;;
19747;SDS011;10032;51.386;12.516;2023-09-30T03:12:52;1.58;;;1.40;;
19747;SDS011;10032;51.386;12.516;2023-09-30T03:15:20;2.15;;;1.63;;
19747;SDS011;10032;51.386;12.516;2023-09-30T03:17:46;1.65;;;1.10;;
19747;SDS011;10032;51.386;12.516;2023-09-30T03:20:11;1.33;;;1.15;;
19747;SDS011;10032;51.386;12.516;2023-09-30T03:22:39;1.80;;;1.10;;
19747;SDS011;10032;51.386;12.516;2023-09-30T03:25:05;1.33;;;1.23;;
19747;SDS011;10032;51.386;12.516;2023-09-30T03:27:32;1.88;;;1.30;;
19747;SDS011;10032;51.386;12.516;2023-09-30T03:29:58;2.90;;;1.63;;
19747;SDS011;10032;51.386;12.516;2023-09-30T03:32:26;1.65;;;1.35;;
19747;SDS011;10032;51.386;12.516;2023-09-30T03:34:52;1.33;;;1.23;;
19747;SDS011;10032;51.386;12.516;2023-09-30T03:37:17;2.45;;;1.33;;
19747;SDS011;10032;51.386;12.516;2023-09-30T03:39:43;2.33;;;1.83;;
19747;SDS011;10032;51.386;12.516;2023-09-30T03:42:08;3.03;;;1.40;;
19747;SDS011;10032;51.386;12.516;2023-09-30T03:44:36;2.53;;;1.50;;
19747;SDS011;10032;51.386;12.516;2023-09-30T03:47:03;1.85;;;1.27;;
19747;SDS011;10032;51.386;12.516;2023-09-30T03:49:29;3.25;;;2.00;;
19747;SDS011;10032;51.386;12.516;2023-09-30T03:51:55;1.20;;;1.02;;
19747;SDS011;10032;51.386;12.516;2023-09-30T03:54:20;2.58;;;2.10;;
19747;SDS011;10032;51.386;12.516;2023-09-30T03:56:47;2.38;;;1.23;;
19747;SDS011;10032;51.386;12.516;2023-09-30T03:59:12;2.33;;;1.30;;
19747;SDS011;10032;51.386;12.516;2023-09-30T04:01:38;5.03;;;2.25;;
19747;SDS011;10032;51.386;12.516;2023-09-30T04:04:07;1.92;;;1.73;;
19747;SDS011;10032;51.386;12.516;2023-09-30T04:06:35;3.53;;;1.92;;
19747;SDS011;10032;51.386;12.516;2023-09-30T04:09:03;2.10;;;1.40;;
19747;SDS011;10032;51.386;12.516;2023-09-30T04:11:34;2.10;;;1.33;;
19747;SDS011;10032;51.386;12.516;2023-09-30T04:14:04;3.45;;;1.50;;
19747;SDS011;10032;51.386;12.516;2023-09-30T04:16:30;2.15;;;1.95;;
19747;SDS011;10032;51.386;12.516;2023-09-30T04:18:56;3.08;;;2.28;;
19747;SDS011;10032;51.386;12.516;2023-09-30T04:21:22;2.28;;;1.75;;
19747;SDS011;10032;51.386;12.516;2023-09-30T04:23:47;2.22;;;1.63;;
19747;SDS011;10032;51.386;12.516;2023-09-30T04:26:14;1.67;;;1.50;;
19747;SDS011;10032;51.386;12.516;2023-09-30T04:28:39;2.10;;;1.50;;
19747;SDS011;10032;51.386;12.516;2023-09-30T04:31:05;3.22;;;1.98;;
19747;SDS011;10032;51.386;12.516;2023-09-30T04:33:32;2.03;;;1.70;;
19747;SDS011;10032;51.386;12.516;2023-09-30T04:36:00;2.13;;;1.58;;
19747;SDS011;10032;51.386;12.516;2023-09-30T04:38:26;1.77;;;1.55;;
19747;SDS011;10032;51.386;12.516;2023-09-30T04:40:51;1.40;;;1.30;;
19747;SDS011;10032;51.386;12.516;2023-09-30T04:43:19;3.72;;;1.73;;
19747;SDS011;10032;51.386;12.516;2023-09-30T04:45:44;2.40;;;1.90;;
19747;SDS011;10032;51.386;12.516;2023-09-30T04:48:11;3.63;;;2.55;;
19747;SDS011;10032;51.386;12.516;2023-09-30T04:50:38;3.47;;;1.80;;
19747;SDS011;10032;51.386;12.516;2023-09-30T04:53:04;2.60;;;1.35;;
19747;SDS011;10032;51.386;12.516;2023-09-30T04:55:29;2.92;;;2.20;;
19747;SDS011;10032;51.386;12.516;2023-09-30T04:57:55;2.38;;;1.23;;
19747;SDS011;10032;51.386;12.516;2023-09-30T05:00:20;2.03;;;1.20;;
19747;SDS011;10032;51.386;12.516;2023-09-30T05:02:50;2.38;;;1.27;;
19747;SDS011;10032;51.386;12.516;2023-09-30T05:05:17;2.22;;;1.65;;
19747;SDS011;10032;51.386;12.516;2023-09-30T05:07:43;4.07;;;1.92;;
19747;SDS011;10032;51.386;12.516;2023-09-30T05:10:09;2.53;;;2.10;;
19747;SDS011;10032;51.386;12.516;2023-09-30T05:12:38;2.85;;;1.67;;
19747;SDS011;10032;51.386;12.516;2023-09-30T05:15:05;1.77;;;1.30;;
19747;SDS011;10032;51.386;12.516;2023-09-30T05:17:33;1.77;;;1.65;;
19747;SDS011;10032;51.386;12.516;2023-09-30T05:19:59;5.65;;;2.40;;
19747;SDS011;10032;51.386;12.516;2023-09-30T05:22:24;2.90;;;2.15;;
19747;SDS011;10032;51.386;12.516;2023-09-30T05:24:50;2.10;;;1.90;;
19747;SDS011;10032;51.386;12.516;2023-09-30T05:27:17;2.47;;;1.50;;
19747;SDS011;10032;51.386;12.516;2023-09-30T05:29:43;2.30;;;1.75;;
19747;SDS011;10032;51.386;12.516;2023-09-30T05:32:08;3.45;;;2.25;;
19747;SDS011;10032;51.386;12.516;2023-09-30T05:34:34;5.88;;;1.70;;
19747;SDS011;10032;51.386;12.516;2023-09-30T05:36:59;2.00;;;1.23;;
19747;SDS011;10032;51.386;12.516;2023-09-30T05:39:24;2.53;;;1.40;;
19747;SDS011;10032;51.386;12.516;2023-09-30T05:41:50;1.38;;;1.25;;
19747;SDS011;10032;51.386;12.516;2023-09-30T05:44:16;1.92;;;1.40;;
19747;SDS011;10032;51.386;12.516;2023-09-30T05:46:41;2.92;;;2.05;;
19747;SDS011;10032;51.386;12.516;2023-09-30T05:49:08;1.35;;;1.10;;
19747;SDS011;10032;51.386;12.516;2023-09-30T05:51:38;4.57;;;1.50;;
19747;SDS011;10032;51.386;12.516;2023-09-30T05:54:07;2.55;;;2.03;;
19747;SDS011;10032;51.386;12.516;2023-09-30T05:56:35;1.80;;;1.27;;
19747;SDS011;10032;51.386;12.516;2023-09-30T05:59:02;2.95;;;1.52;;
19747;SDS011;10032;51.386;12.516;2023-09-30T06:01:28;2.60;;;1.33;;
19747;SDS011;10032;51.386;12.516;2023-09-30T06:03:53;2.70;;;1.30;;
19747;SDS011;10032;51.386;12.516;2023-09-30T06:06:19;1.70;;;1.20;;
19747;SDS011;10032;51.386;12.516;2023-09-30T06:08:45;2.90;;;1.50;;
19747;SDS011;10032;51.386;12.516;2023-09-30T06:11:19;2.05;;;1.48;;
19747;SDS011;10032;51.386;12.516;2023-09-30T06:13:49;2.03;;;1.58;;
19747;SDS011;10032;51.386;12.516;2023-09-30T06:16:16;2.38;;;1.77;;
19747;SDS011;10032;51.386;12.516;2023-09-30T06:18:42;2.40;;;1.58;;
19747;SDS011;10032;51.386;12.516;2023-09-30T06:21:07;2.35;;;1.73;;
19747;SDS011;10032;51.386;12.516;2023-09-30T06:23:34;3.22;;;1.35;;
19747;SDS011;10032;51.386;12.516;2023-09-30T06:26:00;2.53;;;1.45;;
19747;SDS011;10032;51.386;12.516;2023-09-30T06:28:27;3.50;;;2.00;;
19747;SDS011;10032;51.386;12.516;2023-09-30T06:30:56;2.97;;;1.20;;
19747;SDS011;10032;51.386;12.516;2023-09-30T06:33:21;3.10;;;1.30;;
19747;SDS011;10032;51.386;12.516;2023-09-30T06:35:46;2.22;;;1.60;;
19747;SDS011;10032;51.386;12.516;2023-09-30T06:38:18;1.88;;;1.10;;
19747;SDS011;10032;51.386;12.516;2023-09-30T06:40:44;2.13;;;1.20;;
19747;SDS011;10032;51.386;12.516;2023-09-30T06:43:11;3.28;;;1.58;;
19747;SDS011;10032;51.386;12.516;2023-09-30T06:45:37;2.90;;;1.77;;
19747;SDS011;10032;51.386;12.516;2023-09-30T06:48:07;1.42;;;1.00;;
19747;SDS011;10032;51.386;12.516;2023-09-30T06:50:48;1.70;;;0.90;;
19747;SDS011;10032;51.386;12.516;2023-09-30T06:53:15;2.47;;;1.20;;
19747;SDS011;10032;51.386;12.516;2023-09-30T06:55:41;2.65;;;1.83;;
19747;SDS011;10032;51.386;12.516;2023-09-30T06:58:10;2.63;;;1.83;;
19747;SDS011;10032;51.386;12.516;2023-09-30T07:00:36;2.22;;;1.55;;
19747;SDS011;10032;51.386;12.516;2023-09-30T07:03:02;1.35;;;1.10;;
19747;SDS011;10032;51.386;12.516;2023-09-30T07:05:28;2.35;;;1.13;;
19747;SDS011;10032;51.386;12.516;2023-09-30T07:07:54;1.50;;;1.15;;
19747;SDS011;10032;51.386;12.516;2023-09-30T07:10:20;1.60;;;1.02;;
19747;SDS011;10032;51.386;12.516;2023-09-30T07:12:45;2.22;;;1.30;;
19747;SDS011;10032;51.386;12.516;2023-09-30T07:15:10;1.65;;;1.20;;
19747;SDS011;10032;51.386;12.516;2023-09-30T07:17:36;1.33;;;1.05;;
19747;SDS011;10032;51.386;12.516;2023-09-30T07:20:02;3.28;;;1.38;;
19747;SDS011;10032;51.386;12.516;2023-09-30T07:22:29;1.27;;;1.00;;
19747;SDS011;10032;51.386;12.516;2023-09-30T07:24:56;2.15;;;1.20;;
19747;SDS011;10032;51.386;12.516;2023-09-30T07:27:21;1.60;;;1.00;;
19747;SDS011;10032;51.386;12.516;2023-09-30T07:29:47;1.45;;;0.98;;
19747;SDS011;10032;51.386;12.516;2023-09-30T07:32:13;1.98;;;1.10;;
19747;SDS011;10032;51.386;12.516;2023-09-30T07:34:38;1.83;;;0.70;;
19747;SDS011;10032;51.386;12.516;2023-09-30T07:37:04;1.40;;;1.00;;
19747;SDS011;10032;51.386;12.516;2023-09-30T07:39:29;2.15;;;1.00;;
19747;SDS011;10032;51.386;12.516;2023-09-30T07:41:55;2.70;;;1.27;;
19747;SDS011;10032;51.386;12.516;2023-09-30T07:44:21;1.95;;;0.98;;
19747;SDS011;10032;51.386;12.516;2023-09-30T07:46:46;2.05;;;1.85;;
19747;SDS011;10032;51.386;12.516;2023-09-30T07:49:12;2.15;;;1.33;;
19747;SDS011;10032;51.386;12.516;2023-09-30T07:51:37;1.70;;;0.93;;
19747;SDS011;10032;51.386;12.516;2023-09-30T07:54:04;4.93;;;1.30;;
19747;SDS011;10032;51.386;12.516;2023-09-30T07:56:30;1.77;;;1.35;;
19747;SDS011;10032;51.386;12.516;2023-09-30T07:58:55;1.15;;;0.98;;
19747;SDS011;10032;51.386;12.516;2023-09-30T08:01:21;2.58;;;1.60;;
19747;SDS011;10032;51.386;12.516;2023-09-30T08:03:46;1.85;;;0.95;;
19747;SDS011;10032;51.386;12.516;2023-09-30T08:06:12;1.80;;;0.80;;
19747;SDS011;10032;51.386;12.516;2023-09-30T08:08:38;2.05;;;1.40;;
19747;SDS011;10032;51.386;12.516;2023-09-30T08:11:03;1.15;;;0.90;;
19747;SDS011;10032;51.386;12.516;2023-09-30T08:13:29;2.10;;;1.48;;
19747;SDS011;10032;51.386;12.516;2023-09-30T08:15:57;2.00;;;1.02;;
19747;SDS011;10032;51.386;12.516;2023-09-30T08:18:22;0.95;;;0.95;;
19747;SDS011;10032;51.386;12.516;2023-09-30T08:20:48;3.67;;;1.10;;
19747;SDS011;10032;51.386;12.516;2023-09-30T08:23:14;2.88;;;1.20;;
19747;SDS011;10032;51.386;12.516;2023-09-30T08:25:39;1.80;;;1.50;;
19747;SDS011;10032;51.386;12.516;2023-09-30T08:28:05;1.75;;;1.15;;
19747;SDS011;10032;51.386;12.516;2023-09-30T08:30:32;1.83;;;1.02;;
19747;SDS011;10032;51.386;12.516;2023-09-30T08:32:58;2.05;;;1.15;;
19747;SDS011;10032;51.386;12.516;2023-09-30T08:35:24;4.93;;;1.17;;
19747;SDS011;10032;51.386;12.516;2023-09-30T08:37:50;1.77;;;1.48;;
19747;SDS011;10032;51.386;12.516;2023-09-30T08:40:19;2.53;;;1.83;;
19747;SDS011;10032;51.386;12.516;2023-09-30T08:42:45;1.08;;;0.80;;
19747;SDS011;10032;51.386;12.516;2023-09-30T08:45:17;1.75;;;0.95;;
19747;SDS011;10032;51.386;12.516;2023-09-30T08:47:43;2.75;;;1.42;;
19747;SDS011;10032;51.386;12.516;2023-09-30T08:50:09;2.38;;;1.30;;
19747;SDS011;10032;51.386;12.516;2023-09-30T08:52:36;1.83;;;1.35;;
19747;SDS011;10032;51.386;12.516;2023-09-30T08:55:04;1.55;;;0.80;;
19747;SDS011;10032;51.386;12.516;2023-09-30T08:57:31;1.73;;;0.80;;
19747;SDS011;10032;51.386;12.516;2023-09-30T08:59:57;1.63;;;1.00;;
19747;SDS011;10032;51.386;12.516;2023-09-30T09:02:23;1.02;;;0.70;;
19747;SDS011;10032;51.386;12.516;2023-09-30T09:04:48;1.55;;;0.95;;
19747;SDS011;10032;51.386;12.516;2023-09-30T09:07:14;1.95;;;0.90;;
19747;SDS011;10032;51.386;12.516;2023-09-30T09:09:40;2.08;;;0.73;;
19747;SDS011;10032;51.386;12.516;2023-09-30T09:12:06;1.77;;;1.00;;
19747;SDS011;10032;51.386;12.516;2023-09-30T09:14:43;2.03;;;0.98;;
19747;SDS011;10032;51.386;12.516;2023-09-30T09:17:10;1.35;;;0.70;;
19747;SDS011;10032;51.386;12.516;2023-09-30T09:19:36;3.15;;;2.13;;
19747;SDS011;10032;51.386;12.516;2023-09-30T09:22:02;3.50;;;1.52;;
19747;SDS011;10032;51.386;12.516;2023-09-30T09:24:32;3.85;;;1.38;;
19747;SDS011;10032;51.386;12.516;2023-09-30T09:27:09;1.70;;;0.80;;
19747;SDS011;10032;51.386;12.516;2023-09-30T09:29:36;3.17;;;1.85;;
19747;SDS011;10032;51.386;12.516;2023-09-30T09:32:11;6.38;;;2.55;;
19747;SDS011;10032;51.386;12.516;2023-09-30T09:34:38;2.55;;;1.10;;
19747;SDS011;10032;51.386;12.516;2023-09-30T09:37:14;3.90;;;0.93;;
19747;SDS011;10032;51.386;12.516;2023-09-30T09:42:27;1.13;;;0.77;;
19747;SDS011;10032;51.386;12.516;2023-09-30T09:44:54;2.58;;;1.52;;
19747;SDS011;10032;51.386;12.516;2023-09-30T09:47:22;2.03;;;0.82;;
19747;SDS011;10032;51.386;12.516;2023-09-30T09:49:48;1.45;;;0.77;;
19747;SDS011;10032;51.386;12.516;2023-09-30T09:52:16;2.15;;;0.85;;
19747;SDS011;10032;51.386;12.516;2023-09-30T09:54:43;1.10;;;0.82;;
19747;SDS011;10032;51.386;12.516;2023-09-30T09:57:11;1.65;;;1.13;;
19747;SDS011;10032;51.386;12.516;2023-09-30T09:59:38;4.03;;;1.05;;
19747;SDS011;10032;51.386;12.516;2023-09-30T10:02:08;2.38;;;0.77;;
19747;SDS011;10032;51.386;12.516;2023-09-30T10:04:36;3.78;;;1.27;;
19747;SDS011;10032;51.386;12.516;2023-09-30T10:07:02;1.25;;;0.60;;
19747;SDS011;10032;51.386;12.516;2023-09-30T10:09:30;1.73;;;0.93;;
19747;SDS011;10032;51.386;12.516;2023-09-30T10:12:00;3.70;;;1.80;;
19747;SDS011;10032;51.386;12.516;2023-09-30T10:14:32;1.38;;;1.10;;
19747;SDS011;10032;51.386;12.516;2023-09-30T10:16:59;1.45;;;0.73;;
19747;SDS011;10032;51.386;12.516;2023-09-30T10:19:24;1.85;;;1.02;;
19747;SDS011;10032;51.386;12.516;2023-09-30T10:22:34;2.05;;;0.90;;
19747;SDS011;10032;51.386;12.516;2023-09-30T10:24:56;2.35;;;0.95;;
19747;SDS011;10032;51.386;12.516;2023-09-30T10:35:19;1.45;;;1.05;;
19747;SDS011;10032;51.386;12.516;2023-09-30T10:37:46;1.25;;;1.02;;
19747;SDS011;10032;51.386;12.516;2023-09-30T10:40:25;0.90;;;0.50;;
19747;SDS011;10032;51.386;12.516;2023-09-30T10:42:56;2.17;;;1.10;;
19747;SDS011;10032;51.386;12.516;2023-09-30T10:53:20;1.23;;;1.13;;
19747;SDS011;10032;51.386;12.516;2023-09-30T10:55:45;1.70;;;1.60;;
19747;SDS011;10032;51.386;12.516;2023-09-30T10:58:14;2.28;;;0.90;;
19747;SDS011;10032;51.386;12.516;2023-09-30T11:00:51;2.05;;;1.40;;
19747;SDS011;10032;51.386;12.516;2023-09-30T11:03:20;2.55;;;2.35;;
19747;SDS011;10032;51.386;12.516;2023-09-30T11:05:50;2.35;;;1.13;;
19747;SDS011;10032;51.386;12.516;2023-09-30T11:08:19;1.42;;;1.00;;
19747;SDS011;10032;51.386;12.516;2023-09-30T11:10:50;2.08;;;0.95;;
19747;SDS011;10032;51.386;12.516;2023-09-30T11:13:19;1.23;;;0.80;;
19747;SDS011;10032;51.386;12.516;2023-09-30T11:15:45;3.08;;;0.90;;
19747;SDS011;10032;51.386;12.516;2023-09-30T11:20:40;3.17;;;0.80;;
19747;SDS011;10032;51.386;12.516;2023-09-30T11:23:07;0.88;;;0.80;;
19747;SDS011;10032;51.386;12.516;2023-09-30T11:25:36;0.95;;;0.77;;
19747;SDS011;10032;51.386;12.516;2023-09-30T11:28:17;0.90;;;0.70;;
19747;SDS011;10032;51.386;12.516;2023-09-30T11:31:00;1.30;;;1.20;;
19747;SDS011;10032;51.386;12.516;2023-09-30T11:33:31;1.80;;;0.68;;
19747;SDS011;10032;51.386;12.516;2023-09-30T11:36:02;1.65;;;0.88;;
19747;SDS011;10032;51.386;12.516;2023-09-30T11:38:30;2.83;;;1.30;;
19747;SDS011;10032;51.386;12.516;2023-09-30T11:41:01;0.95;;;0.70;;
19747;SDS011;10032;51.386;12.516;2023-09-30T11:43:30;1.25;;;0.73;;
19747;SDS011;10032;51.386;12.516;2023-09-30T11:48:33;2.60;;;0.88;;
19747;SDS011;10032;51.386;12.516;2023-09-30T11:51:00;1.33;;;0.80;;
19747;SDS011;10032;51.386;12.516;2023-09-30T11:53:28;0.60;;;0.60;;
19747;SDS011;10032;51.386;12.516;2023-09-30T11:55:55;1.83;;;0.68;;
19747;SDS011;10032;51.386;12.516;2023-09-30T11:58:27;3.17;;;0.70;;
19747;SDS011;10032;51.386;12.516;2023-09-30T12:00:53;1.50;;;0.50;;
19747;SDS011;10032;51.386;12.516;2023-09-30T12:03:24;1.70;;;0.80;;
19747;SDS011;10032;51.386;12.516;2023-09-30T12:05:52;1.95;;;0.68;;
19747;SDS011;10032;51.386;12.516;2023-09-30T12:08:21;1.05;;;0.88;;
19747;SDS011;10032;51.386;12.516;2023-09-30T12:10:47;2.15;;;0.73;;
19747;SDS011;10032;51.386;12.516;2023-09-30T12:13:12;0.95;;;0.75;;
19747;SDS011;10032;51.386;12.516;2023-09-30T12:15:40;0.60;;;0.60;;
19747;SDS011;10032;51.386;12.516;2023-09-30T12:18:06;3.25;;;0.88;;
19747;SDS011;10032;51.386;12.516;2023-09-30T12:20:32;2.80;;;0.95;;
19747;SDS011;10032;51.386;12.516;2023-09-30T12:22:58;1.50;;;0.65;;
19747;SDS011;10032;51.386;12.516;2023-09-30T12:25:23;3.97;;;0.73;;
19747;SDS011;10032;51.386;12.516;2023-09-30T12:27:50;2.78;;;0.77;;
19747;SDS011;10032;51.386;12.516;2023-09-30T12:30:16;0.70;;;0.60;;
19747;SDS011;10032;51.386;12.516;2023-09-30T12:32:42;1.02;;;0.82;;
19747;SDS011;10032;51.386;12.516;2023-09-30T12:35:07;1.50;;;0.80;;
19747;SDS011;10032;51.386;12.516;2023-09-30T12:37:33;1.88;;;0.63;;
19747;SDS011;10032;51.386;12.516;2023-09-30T12:39:58;4.20;;;1.00;;
19747;SDS011;10032;51.386;12.516;2023-09-30T12:42:24;0.60;;;0.50;;
19747;SDS011;10032;51.386;12.516;2023-09-30T12:44:49;1.33;;;0.70;;
19747;SDS011;10032;51.386;12.516;2023-09-30T12:47:15;3.42;;;0.90;;
19747;SDS011;10032;51.386;12.516;2023-09-30T12:49:40;1.73;;;0.68;;
19747;SDS011;10032;51.386;12.516;2023-09-30T12:52:06;1.98;;;0.73;;
19747;SDS011;10032;51.386;12.516;2023-09-30T12:54:32;2.08;;;0.73;;
19747;SDS011;10032;51.386;12.516;2023-09-30T12:56:58;1.40;;;0.60;;
19747;SDS011;10032;51.386;12.516;2023-09-30T12:59:24;1.23;;;1.15;;
19747;SDS011;10032;51.386;12.516;2023-09-30T13:01:51;0.85;;;0.70;;
19747;SDS011;10032;51.386;12.516;2023-09-30T13:04:16;0.85;;;0.60;;
19747;SDS011;10032;51.386;12.516;2023-09-30T13:06:43;0.65;;;0.65;;
19747;SDS011;10032;51.386;12.516;2023-09-30T13:09:10;0.73;;;0.70;;
19747;SDS011;10032;51.386;12.516;2023-09-30T13:11:36;0.88;;;0.57;;
19747;SDS011;10032;51.386;12.516;2023-09-30T13:14:02;0.73;;;0.60;;
19747;SDS011;10032;51.386;12.516;2023-09-30T13:16:28;1.45;;;0.75;;
19747;SDS011;10032;51.386;12.516;2023-09-30T13:18:53;1.15;;;1.05;;
19747;SDS011;10032;51.386;12.516;2023-09-30T13:21:18;1.23;;;0.70;;
19747;SDS011;10032;51.386;12.516;2023-09-30T13:23:44;0.70;;;0.70;;
19747;SDS011;10032;51.386;12.516;2023-09-30T13:26:10;1.80;;;0.65;;
19747;SDS011;10032;51.386;12.516;2023-09-30T13:28:36;0.90;;;0.50;;
19747;SDS011;10032;51.386;12.516;2023-09-30T13:31:01;0.70;;;0.70;;
19747;SDS011;10032;51.386;12.516;2023-09-30T13:33:26;1.50;;;0.80;;
19747;SDS011;10032;51.386;12.516;2023-09-30T13:35:52;0.93;;;0.60;;
19747;SDS011;10032;51.386;12.516;2023-09-30T13:38:17;1.70;;;1.00;;
19747;SDS011;10032;51.386;12.516;2023-09-30T13:40:43;1.77;;;0.70;;
19747;SDS011;10032;51.386;12.516;2023-09-30T13:43:09;2.05;;;1.00;;
19747;SDS011;10032;51.386;12.516;2023-09-30T13:45:35;0.73;;;0.60;;
19747;SDS011;10032;51.386;12.516;2023-09-30T13:48:00;0.77;;;0.60;;
19747;SDS011;10032;51.386;12.516;2023-09-30T13:50:26;1.05;;;0.85;;
19747;SDS011;10032;51.386;12.516;2023-09-30T13:52:51;1.27;;;0.75;;
19747;SDS011;10032;51.386;12.516;2023-09-30T13:55:17;2.88;;;0.88;;
19747;SDS011;10032;51.386;12.516;2023-09-30T13:57:47;1.38;;;0.80;;
19747;SDS011;10032;51.386;12.516;2023-09-30T14:00:13;1.98;;;0.90;;
19747;SDS011;10032;51.386;12.516;2023-09-30T14:02:39;0.90;;;0.52;;
19747;SDS011;10032;51.386;12.516;2023-09-30T14:05:05;0.65;;;0.60;;
19747;SDS011;10032;51.386;12.516;2023-09-30T14:07:33;1.42;;;0.63;;
19747;SDS011;10032;51.386;12.516;2023-09-30T14:09:59;1.42;;;0.80;;
19747;SDS011;10032;51.386;12.516;2023-09-30T14:12:24;1.50;;;0.52;;
19747;SDS011;10032;51.386;12.516;2023-09-30T14:14:49;1.05;;;1.00;;
19747;SDS011;10032;51.386;12.516;2023-09-30T14:17:16;1.83;;;0.60;;
19747;SDS011;10032;51.386;12.516;2023-09-30T14:19:42;0.90;;;0.65;;
19747;SDS011;10032;51.386;12.516;2023-09-30T14:22:08;1.85;;;1.17;;
19747;SDS011;10032;51.386;12.516;2023-09-30T14:24:34;1.05;;;0.77;;
19747;SDS011;10032;51.386;12.516;2023-09-30T14:27:03;0.77;;;0.68;;
19747;SDS011;10032;51.386;12.516;2023-09-30T14:29:32;1.83;;;0.85;;
19747;SDS011;10032;51.386;12.516;2023-09-30T14:31:58;0.73;;;0.50;;
19747;SDS011;10032;51.386;12.516;2023-09-30T14:34:23;1.90;;;0.80;;
19747;SDS011;10032;51.386;12.516;2023-09-30T14:36:49;1.10;;;0.50;;
19747;SDS011;10032;51.386;12.516;2023-09-30T14:39:15;2.08;;;0.50;;
19747;SDS011;10032;51.386;12.516;2023-09-30T14:41:42;1.73;;;0.85;;
19747;SDS011;10032;51.386;12.516;2023-09-30T14:44:08;1.08;;;0.50;;
19747;SDS011;10032;51.386;12.516;2023-09-30T14:46:33;0.80;;;0.80;;
19747;SDS011;10032;51.386;12.516;2023-09-30T14:49:00;0.47;;;0.43;;
19747;SDS011;10032;51.386;12.516;2023-09-30T14:51:25;1.13;;;0.85;;
19747;SDS011;10032;51.386;12.516;2023-09-30T14:53:51;0.35;;;0.35;;
19747;SDS011;10032;51.386;12.516;2023-09-30T14:56:16;1.27;;;0.80;;